LGKV/KVA METAR and TAF weather

Enter ICAO airport designator
Station Type Date Time Source
LGKV METAR 2019/10/14 05:20 UTC NOAA

LGKV 140520Z 00000KT CAVOK 14/13 Q1022


Station Type Date Time Source
LGKV Decoded METAR 2019/10/14 05:20 UTC NOAA

Chrysoupoli Airport , Greece (LGKV) 40-59N 024-36E 5M
Oct 14, 2019 - 01:20 AM EDT / 2019.10.14 0520 UTC
Wind: Calm:0
Visibility: greater than 7 mile(s):0
Temperature: 57 F (14 C)
Dew Point: 55 F (13 C)
Relative Humidity: 93%
Pressure (altimeter): 30.18 in. Hg (1022 hPa)
ob: LGKV 140520Z 00000KT CAVOK 14/13 Q1022
cycle: 5

Station Type Date Time Source
LGKV TAF 2019/10/14 06:14 UTC NOAA

TAF LGKV 140500Z 1406/1506 VRB03KT CAVOK PROB30 1406/1407 7000 FEW010 PROB30 1502/1506 5000 BR SCT006

Example: see airport list